sensor_id;sensor_type;location;lat;lon;timestamp;pressure;altitude;pressure_sealevel;temperature;humidity
818;BME280;391;51.052;6.954;2023-03-23T00:00:27;99873.38;;;13.22;78.47
818;BME280;391;51.052;6.954;2023-03-23T00:02:31;99877.81;;;13.34;77.95
818;BME280;391;51.052;6.954;2023-03-23T00:04:36;99876.94;;;13.41;77.87
818;BME280;391;51.052;6.954;2023-03-23T00:06:38;99867.34;;;13.41;77.53
818;BME280;391;51.052;6.954;2023-03-23T00:08:41;99854.28;;;13.40;77.20
818;BME280;391;51.052;6.954;2023-03-23T00:10:48;99863.94;;;13.56;77.05
818;BME280;391;51.052;6.954;2023-03-23T00:12:53;99858.69;;;13.56;76.80
818;BME280;391;51.052;6.954;2023-03-23T00:14:59;99860.41;;;13.51;76.57
818;BME280;391;51.052;6.954;2023-03-23T00:17:01;99860.41;;;13.49;76.76
818;BME280;391;51.052;6.954;2023-03-23T00:19:06;99862.97;;;13.40;76.90
818;BME280;391;51.052;6.954;2023-03-23T00:21:08;99863.03;;;13.49;76.86
818;BME280;391;51.052;6.954;2023-03-23T00:23:10;99867.38;;;13.49;76.77
818;BME280;391;51.052;6.954;2023-03-23T00:25:19;99845.53;;;13.36;77.02
818;BME280;391;51.052;6.954;2023-03-23T00:27:22;99843.72;;;13.24;77.59
818;BME280;391;51.052;6.954;2023-03-23T00:29:24;99829.78;;;13.22;77.51
818;BME280;391;51.052;6.954;2023-03-23T00:31:29;99815.66;;;12.93;78.13
818;BME280;391;51.052;6.954;2023-03-23T00:33:35;99845.41;;;13.12;78.18
818;BME280;391;51.052;6.954;2023-03-23T00:35:41;99843.69;;;13.15;78.13
818;BME280;391;51.052;6.954;2023-03-23T00:37:45;99845.47;;;13.21;77.85
818;BME280;391;51.052;6.954;2023-03-23T00:39:48;99844.63;;;13.23;77.65
818;BME280;391;51.052;6.954;2023-03-23T00:41:54;99846.34;;;13.23;77.86
818;BME280;391;51.052;6.954;2023-03-23T00:44:02;99818.41;;;13.14;77.69
818;BME280;391;51.052;6.954;2023-03-23T00:46:04;99842.84;;;13.16;78.06
818;BME280;391;51.052;6.954;2023-03-23T00:48:11;99837.50;;;12.95;78.62
818;BME280;391;51.052;6.954;2023-03-23T00:50:14;99840.16;;;13.07;78.68
818;BME280;391;51.052;6.954;2023-03-23T00:52:18;99833.19;;;13.08;78.65
818;BME280;391;51.052;6.954;2023-03-23T00:54:21;99839.34;;;13.19;78.34
818;BME280;391;51.052;6.954;2023-03-23T00:56:24;99817.53;;;13.21;78.00
818;BME280;391;51.052;6.954;2023-03-23T00:58:27;99812.28;;;13.15;78.26
818;BME280;391;51.052;6.954;2023-03-23T01:00:30;99802.72;;;13.20;78.39
818;BME280;391;51.052;6.954;2023-03-23T01:02:32;99796.59;;;13.17;77.91
818;BME280;391;51.052;6.954;2023-03-23T01:04:40;99826.28;;;13.20;78.15
818;BME280;391;51.052;6.954;2023-03-23T01:06:49;99826.25;;;13.13;78.54
818;BME280;391;51.052;6.954;2023-03-23T01:08:53;99821.88;;;13.18;78.41
818;BME280;391;51.052;6.954;2023-03-23T01:11:02;99809.69;;;13.14;78.33
818;BME280;391;51.052;6.954;2023-03-23T01:13:07;99812.38;;;13.41;78.00
818;BME280;391;51.052;6.954;2023-03-23T01:15:13;99816.69;;;13.19;78.10
818;BME280;391;51.052;6.954;2023-03-23T01:17:16;99809.66;;;13.15;78.42
818;BME280;391;51.052;6.954;2023-03-23T01:19:19;99820.19;;;13.23;78.29
818;BME280;391;51.052;6.954;2023-03-23T01:21:23;99805.34;;;13.23;78.12
818;BME280;391;51.052;6.954;2023-03-23T01:23:27;99820.22;;;13.44;77.63
818;BME280;391;51.052;6.954;2023-03-23T01:25:31;99823.69;;;13.33;77.81
818;BME280;391;51.052;6.954;2023-03-23T01:27:34;99807.06;;;13.15;78.42
818;BME280;391;51.052;6.954;2023-03-23T01:29:37;99809.72;;;13.26;78.40
818;BME280;391;51.052;6.954;2023-03-23T01:31:39;99814.97;;;13.35;78.22
818;BME280;391;51.052;6.954;2023-03-23T01:33:43;99803.59;;;13.25;78.11
818;BME280;391;51.052;6.954;2023-03-23T01:35:46;99807.06;;;13.14;78.87
818;BME280;391;51.052;6.954;2023-03-23T01:37:50;99817.56;;;13.24;78.61
818;BME280;391;51.052;6.954;2023-03-23T01:39:53;99809.66;;;13.12;79.15
818;BME280;391;51.052;6.954;2023-03-23T01:41:55;99807.06;;;13.11;79.75
818;BME280;391;51.052;6.954;2023-03-23T01:44:01;99807.94;;;13.22;79.63
818;BME280;391;51.052;6.954;2023-03-23T01:46:08;99812.34;;;13.29;79.99
818;BME280;391;51.052;6.954;2023-03-23T01:48:15;99793.13;;;13.16;80.49
818;BME280;391;51.052;6.954;2023-03-23T01:50:19;99792.28;;;13.23;81.17
818;BME280;391;51.052;6.954;2023-03-23T01:52:26;99788.75;;;13.11;81.50
818;BME280;391;51.052;6.954;2023-03-23T01:54:37;99791.38;;;13.20;81.72
818;BME280;391;51.052;6.954;2023-03-23T01:56:47;99741.56;;;12.97;81.79
818;BME280;391;51.052;6.954;2023-03-23T01:58:51;99784.38;;;13.10;82.77
818;BME280;391;51.052;6.954;2023-03-23T02:00:55;99771.16;;;12.87;83.60
818;BME280;391;51.052;6.954;2023-03-23T02:03:01;99792.97;;;12.85;84.16
818;BME280;391;51.052;6.954;2023-03-23T02:05:12;99787.78;;;12.92;84.51
818;BME280;391;51.052;6.954;2023-03-23T02:07:20;99779.97;;;13.04;84.23
818;BME280;391;51.052;6.954;2023-03-23T02:09:25;99779.06;;;12.95;84.31
818;BME280;391;51.052;6.954;2023-03-23T02:11:29;99791.25;;;12.91;85.24
818;BME280;391;51.052;6.954;2023-03-23T02:13:31;99793.81;;;12.84;84.99
818;BME280;391;51.052;6.954;2023-03-23T02:15:42;99766.81;;;12.91;85.08
818;BME280;391;51.052;6.954;2023-03-23T02:17:51;99766.78;;;12.82;85.62
818;BME280;391;51.052;6.954;2023-03-23T02:20:08;99759.00;;;12.97;85.59
818;BME280;391;51.052;6.954;2023-03-23T02:22:33;99751.97;;;12.87;85.77
818;BME280;391;51.052;6.954;2023-03-23T02:24:57;99754.63;;;12.91;85.69
818;BME280;391;51.052;6.954;2023-03-23T02:27:05;99746.75;;;12.85;85.62
818;BME280;391;51.052;6.954;2023-03-23T02:29:46;99740.59;;;12.77;85.78
818;BME280;391;51.052;6.954;2023-03-23T02:32:03;99687.31;;;12.48;86.02
818;BME280;391;51.052;6.954;2023-03-23T02:34:13;99713.56;;;12.77;86.35
818;BME280;391;51.052;6.954;2023-03-23T02:36:23;99715.34;;;12.82;86.02
818;BME280;391;51.052;6.954;2023-03-23T02:38:31;99705.75;;;12.84;85.75
818;BME280;391;51.052;6.954;2023-03-23T02:40:38;99712.75;;;12.90;85.54
818;BME280;391;51.052;6.954;2023-03-23T02:42:44;99710.94;;;12.77;85.43
818;BME280;391;51.052;6.954;2023-03-23T02:44:50;99723.22;;;12.93;85.13
818;BME280;391;51.052;6.954;2023-03-23T02:46:55;99724.94;;;12.86;84.96
818;BME280;391;51.052;6.954;2023-03-23T02:48:58;99718.88;;;12.89;84.99
818;BME280;391;51.052;6.954;2023-03-23T02:51:03;99713.63;;;12.96;84.64
818;BME280;391;51.052;6.954;2023-03-23T02:53:09;99698.75;;;12.83;84.26
818;BME280;391;51.052;6.954;2023-03-23T02:55:12;99718.88;;;12.92;84.41
818;BME280;391;51.052;6.954;2023-03-23T02:57:17;99737.19;;;12.98;84.05
818;BME280;391;51.052;6.954;2023-03-23T02:59:20;99735.41;;;12.88;84.11
818;BME280;391;51.052;6.954;2023-03-23T03:01:57;99753.72;;;12.88;84.06
818;BME280;391;51.052;6.954;2023-03-23T03:04:05;99741.53;;;12.88;84.09
818;BME280;391;51.052;6.954;2023-03-23T03:06:19;99742.41;;;12.92;83.92
818;BME280;391;51.052;6.954;2023-03-23T03:08:30;99742.41;;;12.93;83.57
818;BME280;391;51.052;6.954;2023-03-23T03:10:43;99727.56;;;12.85;83.50
818;BME280;391;51.052;6.954;2023-03-23T03:12:53;99739.78;;;12.89;83.48
818;BME280;391;51.052;6.954;2023-03-23T03:15:06;99739.72;;;12.80;83.56
818;BME280;391;51.052;6.954;2023-03-23T03:17:18;99738.06;;;12.92;83.41
818;BME280;391;51.052;6.954;2023-03-23T03:19:24;99747.66;;;12.98;82.92
818;BME280;391;51.052;6.954;2023-03-23T03:21:34;99721.50;;;12.95;82.88
818;BME280;391;51.052;6.954;2023-03-23T03:23:40;99692.66;;;12.77;82.50
818;BME280;391;51.052;6.954;2023-03-23T03:25:44;99728.44;;;12.87;82.62
818;BME280;391;51.052;6.954;2023-03-23T03:27:53;99731.94;;;12.92;82.69
818;BME280;391;51.052;6.954;2023-03-23T03:30:10;99740.63;;;12.85;82.88
818;BME280;391;51.052;6.954;2023-03-23T03:32:20;99731.03;;;12.78;82.53
818;BME280;391;51.052;6.954;2023-03-23T03:34:24;99719.66;;;12.71;82.78
818;BME280;391;51.052;6.954;2023-03-23T03:36:29;99728.38;;;12.68;83.46
818;BME280;391;51.052;6.954;2023-03-23T03:38:46;99736.22;;;12.68;82.93
818;BME280;391;51.052;6.954;2023-03-23T03:40:50;99742.31;;;12.67;83.22
818;BME280;391;51.052;6.954;2023-03-23T03:42:52;99751.03;;;12.65;83.07
818;BME280;391;51.052;6.954;2023-03-23T03:44:55;99750.94;;;12.47;83.74
818;BME280;391;51.052;6.954;2023-03-23T03:46:58;99755.28;;;12.43;84.21
818;BME280;391;51.052;6.954;2023-03-23T03:49:02;99751.84;;;12.55;83.28
818;BME280;391;51.052;6.954;2023-03-23T03:51:06;99760.47;;;12.42;83.87
818;BME280;391;51.052;6.954;2023-03-23T03:53:12;99751.78;;;12.43;84.13
818;BME280;391;51.052;6.954;2023-03-23T03:55:18;99757.97;;;12.60;83.41
818;BME280;391;51.052;6.954;2023-03-23T03:57:23;99741.41;;;12.59;82.99
818;BME280;391;51.052;6.954;2023-03-23T03:59:56;99750.13;;;12.64;82.96
818;BME280;391;51.052;6.954;2023-03-23T04:02:16;99749.31;;;12.78;82.58
818;BME280;391;51.052;6.954;2023-03-23T04:04:22;99748.47;;;12.83;82.26
818;BME280;391;51.052;6.954;2023-03-23T04:06:24;99742.34;;;12.77;82.46
818;BME280;391;51.052;6.954;2023-03-23T04:08:29;99740.59;;;12.71;82.26
818;BME280;391;51.052;6.954;2023-03-23T04:10:35;99740.63;;;12.82;82.26
818;BME280;391;51.052;6.954;2023-03-23T04:12:37;99734.53;;;12.81;81.80
818;BME280;391;51.052;6.954;2023-03-23T04:14:59;99739.81;;;12.98;81.59
818;BME280;391;51.052;6.954;2023-03-23T04:17:06;99744.19;;;13.00;81.44
818;BME280;391;51.052;6.954;2023-03-23T04:19:10;99741.53;;;12.88;81.80
818;BME280;391;51.052;6.954;2023-03-23T04:21:14;99738.00;;;12.79;82.17
818;BME280;391;51.052;6.954;2023-03-23T04:23:20;99738.91;;;12.85;82.08
818;BME280;391;51.052;6.954;2023-03-23T04:25:25;99744.13;;;12.87;82.11
818;BME280;391;51.052;6.954;2023-03-23T04:27:31;99743.25;;;12.83;81.75
818;BME280;391;51.052;6.954;2023-03-23T04:29:35;99752.84;;;12.81;82.15
818;BME280;391;51.052;6.954;2023-03-23T04:31:58;99680.34;;;12.41;82.43
818;BME280;391;51.052;6.954;2023-03-23T04:34:10;99740.59;;;12.72;82.16
818;BME280;391;51.052;6.954;2023-03-23T04:36:19;99746.66;;;12.70;82.52
818;BME280;391;51.052;6.954;2023-03-23T04:38:32;99750.19;;;12.80;82.58
818;BME280;391;51.052;6.954;2023-03-23T04:40:43;99751.09;;;12.79;82.49
818;BME280;391;51.052;6.954;2023-03-23T04:43:03;99750.19;;;12.77;82.46
818;BME280;391;51.052;6.954;2023-03-23T04:45:29;99739.75;;;12.78;82.46
818;BME280;391;51.052;6.954;2023-03-23T04:47:36;99745.84;;;12.77;82.57
818;BME280;391;51.052;6.954;2023-03-23T04:49:49;99746.72;;;12.78;82.34
818;BME280;391;51.052;6.954;2023-03-23T04:52:01;99748.47;;;12.83;82.18
818;BME280;391;51.052;6.954;2023-03-23T04:54:27;99754.56;;;12.81;82.39
818;BME280;391;51.052;6.954;2023-03-23T04:56:33;99761.56;;;12.85;82.35
818;BME280;391;51.052;6.954;2023-03-23T04:58:43;99754.56;;;12.84;82.38
818;BME280;391;51.052;6.954;2023-03-23T05:01:12;99751.06;;;12.74;82.70
818;BME280;391;51.052;6.954;2023-03-23T05:03:26;99748.41;;;12.68;82.53
818;BME280;391;51.052;6.954;2023-03-23T05:05:30;99711.72;;;12.48;82.96
818;BME280;391;51.052;6.954;2023-03-23T05:07:40;99774.63;;;12.79;82.52
818;BME280;391;51.052;6.954;2023-03-23T05:09:46;99750.97;;;12.56;82.69
818;BME280;391;51.052;6.954;2023-03-23T05:11:50;99765.06;;;12.82;82.69
818;BME280;391;51.052;6.954;2023-03-23T05:13:54;99764.16;;;12.86;82.36
818;BME280;391;51.052;6.954;2023-03-23T05:15:58;99774.63;;;12.76;82.84
818;BME280;391;51.052;6.954;2023-03-23T05:18:04;99775.56;;;12.91;82.35
818;BME280;391;51.052;6.954;2023-03-23T05:20:10;99773.00;;;13.05;82.03
818;BME280;391;51.052;6.954;2023-03-23T05:22:17;99761.63;;;13.03;81.61
818;BME280;391;51.052;6.954;2023-03-23T05:24:23;99777.31;;;12.98;82.00
818;BME280;391;51.052;6.954;2023-03-23T05:26:27;99774.69;;;12.97;82.20
818;BME280;391;51.052;6.954;2023-03-23T05:28:38;99775.56;;;12.94;82.23
818;BME280;391;51.052;6.954;2023-03-23T05:30:55;99761.53;;;12.80;82.75
818;BME280;391;51.052;6.954;2023-03-23T05:33:02;99780.75;;;12.87;82.41
818;BME280;391;51.052;6.954;2023-03-23T05:35:19;99772.88;;;12.84;82.61
818;BME280;391;51.052;6.954;2023-03-23T05:37:27;99746.69;;;12.74;82.66
818;BME280;391;51.052;6.954;2023-03-23T05:39:40;99759.78;;;12.78;82.45
818;BME280;391;51.052;6.954;2023-03-23T05:42:00;99783.44;;;13.00;82.46
818;BME280;391;51.052;6.954;2023-03-23T05:44:15;99779.88;;;12.88;82.75
818;BME280;391;51.052;6.954;2023-03-23T05:46:24;99789.47;;;12.87;82.76
818;BME280;391;51.052;6.954;2023-03-23T05:48:31;99745.78;;;12.63;83.14
818;BME280;391;51.052;6.954;2023-03-23T05:50:34;99770.28;;;12.87;82.94
818;BME280;391;51.052;6.954;2023-03-23T05:52:38;99771.09;;;12.77;82.82
818;BME280;391;51.052;6.954;2023-03-23T05:54:44;99787.72;;;12.86;82.98
818;BME280;391;51.052;6.954;2023-03-23T05:56:47;99770.28;;;12.84;82.67
818;BME280;391;51.052;6.954;2023-03-23T05:59:12;99783.41;;;12.97;82.37
818;BME280;391;51.052;6.954;2023-03-23T06:01:18;99778.19;;;13.00;82.25
818;BME280;391;51.052;6.954;2023-03-23T06:03:22;99787.84;;;13.09;82.13
818;BME280;391;51.052;6.954;2023-03-23T06:05:35;99791.31;;;13.05;82.03
818;BME280;391;51.052;6.954;2023-03-23T06:07:38;99792.22;;;13.16;81.97
818;BME280;391;51.052;6.954;2023-03-23T06:09:41;99690.88;;;12.62;81.59
818;BME280;391;51.052;6.954;2023-03-23T06:12:08;99774.66;;;12.91;81.16
818;BME280;391;51.052;6.954;2023-03-23T06:14:34;99810.41;;;12.86;81.63
818;BME280;391;51.052;6.954;2023-03-23T06:16:36;99806.09;;;12.95;81.24
818;BME280;391;51.052;6.954;2023-03-23T06:18:44;99814.78;;;12.93;80.92
818;BME280;391;51.052;6.954;2023-03-23T06:21:06;99788.53;;;12.68;80.62
818;BME280;391;51.052;6.954;2023-03-23T06:23:22;99814.75;;;12.82;80.69
818;BME280;391;51.052;6.954;2023-03-23T06:25:27;99820.88;;;12.83;80.22
818;BME280;391;51.052;6.954;2023-03-23T06:27:30;99825.19;;;12.81;79.98
818;BME280;391;51.052;6.954;2023-03-23T06:29:33;99825.13;;;12.70;80.45
818;BME280;391;51.052;6.954;2023-03-23T06:31:35;99791.09;;;12.62;79.82
818;BME280;391;51.052;6.954;2023-03-23T06:33:38;99817.22;;;12.61;79.93
818;BME280;391;51.052;6.954;2023-03-23T06:35:43;99815.53;;;12.67;78.84
818;BME280;391;51.052;6.954;2023-03-23T06:37:59;99821.66;;;12.69;79.26
818;BME280;391;51.052;6.954;2023-03-23T06:40:31;99828.75;;;12.93;78.27
818;BME280;391;51.052;6.954;2023-03-23T06:42:34;99802.50;;;12.80;78.17
818;BME280;391;51.052;6.954;2023-03-23T06:44:55;99825.28;;;13.00;78.01
818;BME280;391;51.052;6.954;2023-03-23T06:47:00;99824.38;;;12.88;77.92
818;BME280;391;51.052;6.954;2023-03-23T06:49:08;99826.91;;;12.76;77.71
818;BME280;391;51.052;6.954;2023-03-23T06:51:22;99820.03;;;12.96;77.15
818;BME280;391;51.052;6.954;2023-03-23T06:53:27;99821.84;;;13.07;76.60
818;BME280;391;51.052;6.954;2023-03-23T06:55:32;99828.00;;;13.11;76.01
818;BME280;391;51.052;6.954;2023-03-23T06:57:35;99832.31;;;13.07;75.96
818;BME280;391;51.052;6.954;2023-03-23T06:59:37;99822.69;;;13.03;75.67
818;BME280;391;51.052;6.954;2023-03-23T07:01:40;99840.09;;;12.92;75.73
818;BME280;391;51.052;6.954;2023-03-23T07:03:44;99809.47;;;12.71;76.02
818;BME280;391;51.052;6.954;2023-03-23T07:05:49;99841.81;;;12.89;76.00
818;BME280;391;51.052;6.954;2023-03-23T07:07:57;99824.34;;;12.82;75.69
818;BME280;391;51.052;6.954;2023-03-23T07:10:07;99839.25;;;13.02;75.19
818;BME280;391;51.052;6.954;2023-03-23T07:12:12;99844.50;;;13.07;75.14
818;BME280;391;51.052;6.954;2023-03-23T07:14:20;99846.34;;;13.24;74.76
818;BME280;391;51.052;6.954;2023-03-23T07:16:24;99841.13;;;13.31;74.69
818;BME280;391;51.052;6.954;2023-03-23T07:18:27;99842.88;;;13.29;74.49
818;BME280;391;51.052;6.954;2023-03-23T07:20:33;99834.19;;;13.39;74.35
818;BME280;391;51.052;6.954;2023-03-23T07:22:35;99813.19;;;13.19;74.22
818;BME280;391;51.052;6.954;2023-03-23T07:24:47;99835.88;;;13.23;74.35
818;BME280;391;51.052;6.954;2023-03-23T07:27:05;99845.44;;;13.10;74.88
818;BME280;391;51.052;6.954;2023-03-23T07:29:08;99837.53;;;13.07;75.05
818;BME280;391;51.052;6.954;2023-03-23T07:31:15;99838.41;;;13.08;74.50
818;BME280;391;51.052;6.954;2023-03-23T07:33:18;99833.13;;;12.99;74.90
818;BME280;391;51.052;6.954;2023-03-23T07:35:21;99824.34;;;12.89;75.38
818;BME280;391;51.052;6.954;2023-03-23T07:37:30;99834.88;;;13.00;75.05
818;BME280;391;51.052;6.954;2023-03-23T07:39:34;99839.31;;;13.08;74.89
818;BME280;391;51.052;6.954;2023-03-23T07:41:38;99830.50;;;13.02;74.98
818;BME280;391;51.052;6.954;2023-03-23T07:43:50;99839.34;;;13.16;74.78
818;BME280;391;51.052;6.954;2023-03-23T07:46:06;99831.44;;;13.07;74.47
818;BME280;391;51.052;6.954;2023-03-23T07:48:19;99828.88;;;13.14;74.68
818;BME280;391;51.052;6.954;2023-03-23T07:50:22;99834.97;;;13.15;74.54
818;BME280;391;51.052;6.954;2023-03-23T07:52:28;99737.94;;;12.65;74.03
818;BME280;391;51.052;6.954;2023-03-23T07:54:31;99835.84;;;13.11;74.36
818;BME280;391;51.052;6.954;2023-03-23T07:56:49;99834.97;;;13.13;74.18
818;BME280;391;51.052;6.954;2023-03-23T07:58:58;99836.69;;;13.08;74.33
818;BME280;391;51.052;6.954;2023-03-23T08:01:02;99828.84;;;13.11;74.42
818;BME280;391;51.052;6.954;2023-03-23T08:03:07;99839.41;;;13.33;74.13
818;BME280;391;51.052;6.954;2023-03-23T08:05:26;99815.81;;;13.20;73.24
818;BME280;391;51.052;6.954;2023-03-23T08:08:02;99843.72;;;13.27;73.04
818;BME280;391;51.052;6.954;2023-03-23T08:10:16;99819.28;;;13.13;73.38
818;BME280;391;51.052;6.954;2023-03-23T08:12:29;99837.66;;;13.35;72.48
818;BME280;391;51.052;6.954;2023-03-23T08:14:37;99845.50;;;13.24;72.93
818;BME280;391;51.052;6.954;2023-03-23T08:16:58;99840.19;;;13.15;73.20
818;BME280;391;51.052;6.954;2023-03-23T08:19:13;99842.81;;;13.12;73.21
818;BME280;391;51.052;6.954;2023-03-23T08:21:41;99846.31;;;13.18;73.33
818;BME280;391;51.052;6.954;2023-03-23T08:24:10;99855.97;;;13.32;72.50
818;BME280;391;51.052;6.954;2023-03-23T08:26:37;99845.53;;;13.39;72.41
818;BME280;391;51.052;6.954;2023-03-23T08:28:59;99851.72;;;13.64;71.80
818;BME280;391;51.052;6.954;2023-03-23T08:31:20;99856.06;;;13.72;71.50
818;BME280;391;51.052;6.954;2023-03-23T08:33:25;99862.19;;;13.62;71.23
818;BME280;391;51.052;6.954;2023-03-23T08:36:04;99858.69;;;13.72;71.09
818;BME280;391;51.052;6.954;2023-03-23T08:38:27;99863.09;;;13.79;70.57
818;BME280;391;51.052;6.954;2023-03-23T08:40:57;99851.72;;;13.76;70.71
818;BME280;391;51.052;6.954;2023-03-23T08:43:23;99863.94;;;13.78;70.03
818;BME280;391;51.052;6.954;2023-03-23T08:45:46;99851.72;;;13.62;69.85
818;BME280;391;51.052;6.954;2023-03-23T08:48:04;99862.22;;;13.77;70.28
818;BME280;391;51.052;6.954;2023-03-23T08:50:11;99852.56;;;13.55;69.75
818;BME280;391;51.052;6.954;2023-03-23T08:52:41;99823.72;;;13.42;69.96
818;BME280;391;51.052;6.954;2023-03-23T08:54:54;99879.66;;;13.75;69.70
818;BME280;391;51.052;6.954;2023-03-23T08:57:08;99894.53;;;13.72;69.00
818;BME280;391;51.052;6.954;2023-03-23T08:59:31;99889.28;;;13.76;68.61
818;BME280;391;51.052;6.954;2023-03-23T09:01:55;99895.44;;;13.85;69.02
818;BME280;391;51.052;6.954;2023-03-23T09:04:32;99876.19;;;13.78;68.44
818;BME280;391;51.052;6.954;2023-03-23T09:06:58;99892.75;;;13.63;68.97
818;BME280;391;51.052;6.954;2023-03-23T09:09:00;99896.28;;;13.71;68.91
818;BME280;391;51.052;6.954;2023-03-23T09:11:09;99876.19;;;13.72;68.89
818;BME280;391;51.052;6.954;2023-03-23T09:13:11;99892.78;;;13.89;68.39
818;BME280;391;51.052;6.954;2023-03-23T09:15:15;99894.56;;;13.93;68.44
818;BME280;391;51.052;6.954;2023-03-23T09:17:20;99891.09;;;14.09;67.86
818;BME280;391;51.052;6.954;2023-03-23T09:19:22;99894.53;;;13.98;67.40
818;BME280;391;51.052;6.954;2023-03-23T09:21:25;99884.97;;;14.09;67.34
818;BME280;391;51.052;6.954;2023-03-23T09:23:27;99898.94;;;14.17;66.90
818;BME280;391;51.052;6.954;2023-03-23T09:25:30;99887.59;;;14.00;66.50
818;BME280;391;51.052;6.954;2023-03-23T09:27:32;99892.81;;;13.92;66.83
818;BME280;391;51.052;6.954;2023-03-23T09:29:35;99886.69;;;13.89;66.97
818;BME280;391;51.052;6.954;2023-03-23T09:31:37;99887.56;;;13.95;67.17
818;BME280;391;51.052;6.954;2023-03-23T09:33:42;99891.94;;;14.01;66.64
818;BME280;391;51.052;6.954;2023-03-23T09:35:46;99888.47;;;13.97;66.81
818;BME280;391;51.052;6.954;2023-03-23T09:37:50;99891.06;;;14.14;66.83
818;BME280;391;51.052;6.954;2023-03-23T09:39:53;99888.44;;;14.05;66.53
818;BME280;391;51.052;6.954;2023-03-23T09:42:08;99908.56;;;14.12;66.30
818;BME280;391;51.052;6.954;2023-03-23T09:44:19;99896.31;;;14.06;66.15
818;BME280;391;51.052;6.954;2023-03-23T09:46:35;99907.69;;;14.26;66.14
818;BME280;391;51.052;6.954;2023-03-23T09:48:49;99919.03;;;14.12;66.55
818;BME280;391;51.052;6.954;2023-03-23T09:50:58;99914.66;;;14.14;66.06
818;BME280;391;51.052;6.954;2023-03-23T09:53:07;99920.81;;;14.19;66.30
818;BME280;391;51.052;6.954;2023-03-23T09:55:13;99905.06;;;14.29;65.59
818;BME280;391;51.052;6.954;2023-03-23T09:57:22;99910.31;;;14.16;65.57
818;BME280;391;51.052;6.954;2023-03-23T09:59:30;99901.56;;;14.30;65.06
818;BME280;391;51.052;6.954;2023-03-23T10:01:36;99909.44;;;14.27;65.09
818;BME280;391;51.052;6.954;2023-03-23T10:03:41;99902.47;;;14.13;63.57
818;BME280;391;51.052;6.954;2023-03-23T10:05:46;99918.16;;;14.11;63.42
818;BME280;391;51.052;6.954;2023-03-23T10:07:50;99887.53;;;13.78;63.62
818;BME280;391;51.052;6.954;2023-03-23T10:09:54;99862.22;;;13.77;63.72
818;BME280;391;51.052;6.954;2023-03-23T10:12:04;99891.94;;;14.02;63.99
818;BME280;391;51.052;6.954;2023-03-23T10:14:19;99894.56;;;14.08;63.55
818;BME280;391;51.052;6.954;2023-03-23T10:16:26;99868.34;;;14.02;63.43
818;BME280;391;51.052;6.954;2023-03-23T10:18:37;99898.91;;;13.90;63.58
818;BME280;391;51.052;6.954;2023-03-23T10:20:43;99870.06;;;13.76;64.18
818;BME280;391;51.052;6.954;2023-03-23T10:22:53;99868.34;;;13.86;64.08
818;BME280;391;51.052;6.954;2023-03-23T10:25:11;99909.41;;;14.11;63.85
818;BME280;391;51.052;6.954;2023-03-23T10:27:20;99902.47;;;14.31;63.99
818;BME280;391;51.052;6.954;2023-03-23T10:29:28;99904.19;;;14.14;64.52
818;BME280;391;51.052;6.954;2023-03-23T10:31:38;99912.06;;;14.12;65.05
818;BME280;391;51.052;6.954;2023-03-23T10:33:47;99912.03;;;13.99;65.82
818;BME280;391;51.052;6.954;2023-03-23T10:35:54;99870.91;;;13.64;67.23
818;BME280;391;51.052;6.954;2023-03-23T10:38:05;99902.41;;;13.84;67.96
818;BME280;391;51.052;6.954;2023-03-23T10:40:14;99912.88;;;13.79;69.70
818;BME280;391;51.052;6.954;2023-03-23T10:42:28;99912.72;;;13.37;73.97
818;BME280;391;51.052;6.954;2023-03-23T10:44:31;99904.84;;;13.34;74.98
818;BME280;391;51.052;6.954;2023-03-23T10:46:38;99900.44;;;13.22;76.07
818;BME280;391;51.052;6.954;2023-03-23T10:48:43;99891.72;;;13.22;76.53
818;BME280;391;51.052;6.954;2023-03-23T10:50:51;99896.06;;;13.20;76.29
818;BME280;391;51.052;6.954;2023-03-23T10:52:58;99906.63;;;13.44;76.35
818;BME280;391;51.052;6.954;2023-03-23T10:55:04;99905.78;;;13.47;75.60
818;BME280;391;51.052;6.954;2023-03-23T10:57:21;99909.28;;;13.43;75.73
818;BME280;391;51.052;6.954;2023-03-23T10:59:27;99862.88;;;13.10;76.26
818;BME280;391;51.052;6.954;2023-03-23T11:01:32;99924.97;;;13.47;77.27
818;BME280;391;51.052;6.954;2023-03-23T11:03:40;99916.19;;;13.24;79.60
818;BME280;391;51.052;6.954;2023-03-23T11:05:47;99889.84;;;13.01;79.77
818;BME280;391;51.052;6.954;2023-03-23T11:07:53;99907.34;;;13.11;80.13
818;BME280;391;51.052;6.954;2023-03-23T11:09:57;99911.78;;;13.24;80.24
818;BME280;391;51.052;6.954;2023-03-23T11:12:16;99910.19;;;13.58;79.39
818;BME280;391;51.052;6.954;2023-03-23T11:14:23;99912.00;;;13.81;78.54
818;BME280;391;51.052;6.954;2023-03-23T11:16:28;99890.16;;;13.71;77.66
818;BME280;391;51.052;6.954;2023-03-23T11:18:36;99911.13;;;13.89;77.63
818;BME280;391;51.052;6.954;2023-03-23T11:20:41;99914.69;;;14.03;77.26
818;BME280;391;51.052;6.954;2023-03-23T11:22:44;99905.03;;;13.81;77.52
818;BME280;391;51.052;6.954;2023-03-23T11:24:49;99867.47;;;13.81;77.24
818;BME280;391;51.052;6.954;2023-03-23T11:26:56;99904.19;;;14.08;76.89
818;BME280;391;51.052;6.954;2023-03-23T11:29:04;99898.09;;;14.25;76.47
818;BME280;391;51.052;6.954;2023-03-23T11:31:08;99891.94;;;14.26;75.90
818;BME280;391;51.052;6.954;2023-03-23T11:33:12;99901.59;;;14.37;75.59
818;BME280;391;51.052;6.954;2023-03-23T11:35:19;99908.53;;;13.97;75.61
818;BME280;391;51.052;6.954;2023-03-23T11:37:27;99897.19;;;13.96;75.27
818;BME280;391;51.052;6.954;2023-03-23T11:39:32;99909.41;;;14.11;74.64
818;BME280;391;51.052;6.954;2023-03-23T11:41:37;99900.69;;;14.12;74.11
818;BME280;391;51.052;6.954;2023-03-23T11:43:44;99905.03;;;14.01;74.10
818;BME280;391;51.052;6.954;2023-03-23T11:45:56;99915.53;;;14.11;73.98
818;BME280;391;51.052;6.954;2023-03-23T11:48:12;99909.47;;;14.34;74.15
818;BME280;391;51.052;6.954;2023-03-23T11:50:20;99905.09;;;14.37;74.16
818;BME280;391;51.052;6.954;2023-03-23T11:52:26;99910.34;;;14.34;75.15
818;BME280;391;51.052;6.954;2023-03-23T11:54:34;99922.53;;;14.11;76.71
818;BME280;391;51.052;6.954;2023-03-23T11:56:42;99932.13;;;13.98;77.93
818;BME280;391;51.052;6.954;2023-03-23T11:58:44;99813.16;;;13.16;79.75
818;BME280;391;51.052;6.954;2023-03-23T12:00:51;99928.59;;;13.76;79.99